createdAt,value
2022-12-16T07:49:57.056Z,128.80
2022-12-16T07:51:49.504Z,82.53
2022-12-16T07:53:40.922Z,137.32
2022-12-16T07:55:31.690Z,124.95
2022-12-16T07:57:23.144Z,115.63
2022-12-16T07:59:14.711Z,117.65
2022-12-16T08:01:09.409Z,103.10
2022-12-16T08:03:01.394Z,96.60
2022-12-16T08:04:51.959Z,97.97
2022-12-16T08:06:42.634Z,96.82
2022-12-16T08:08:34.944Z,122.40
2022-12-16T08:10:26.228Z,73.88
2022-12-16T08:12:16.552Z,57.55
2022-12-16T08:14:07.227Z,59.55
2022-12-16T08:15:57.775Z,55.17
2022-12-16T08:17:48.369Z,54.20
2022-12-16T08:19:38.895Z,50.25
2022-12-16T08:21:29.530Z,51.03
2022-12-16T08:23:19.602Z,46.92
2022-12-16T08:25:11.995Z,54.38
2022-12-16T08:27:02.957Z,46.13
2022-12-16T08:28:53.792Z,45.20
2022-12-16T08:30:40.887Z,41.05
2022-12-16T08:32:31.663Z,45.42
2022-12-16T08:34:22.532Z,35.42
2022-12-16T08:36:16.515Z,37.95
2022-12-16T08:38:12.181Z,49.08
2022-12-16T08:40:33.810Z,49.95
2022-12-16T08:42:17.913Z,143.30
2022-12-16T08:44:08.711Z,77.90
2022-12-16T08:45:59.658Z,50.90
2022-12-16T08:47:50.471Z,44.85
2022-12-16T08:49:41.538Z,47.58
2022-12-16T08:51:32.228Z,60.63
2022-12-16T08:53:22.863Z,53.42
2022-12-16T08:55:13.699Z,52.50
2022-12-16T08:57:04.569Z,63.30
2022-12-16T08:58:56.456Z,53.40
2022-12-16T09:00:47.160Z,53.50
2022-12-16T09:02:38.046Z,74.22
2022-12-16T09:04:28.948Z,58.42
2022-12-16T09:06:19.655Z,52.53
2022-12-16T09:08:10.666Z,50.30
2022-12-16T09:10:01.126Z,48.90
2022-12-16T09:11:51.693Z,64.15
2022-12-16T09:13:42.656Z,58.20
2022-12-16T09:15:34.730Z,55.33
2022-12-16T09:17:25.399Z,55.67
2022-12-16T09:19:16.162Z,61.65
2022-12-16T09:21:07.151Z,57.58
2022-12-16T09:22:58.300Z,55.75
2022-12-16T09:24:48.726Z,59.38
2022-12-16T09:26:41.900Z,63.50
2022-12-16T09:28:32.687Z,69.28
2022-12-16T09:30:24.070Z,54.58
2022-12-16T09:32:15.866Z,59.42
2022-12-16T09:34:06.675Z,55.13
2022-12-16T09:35:57.117Z,52.17
2022-12-16T09:37:48.774Z,52.45
2022-12-16T09:39:39.564Z,55.47
2022-12-16T09:41:47.035Z,44.30
2022-12-16T09:44:02.430Z,44.45
2022-12-16T09:46:03.195Z,55.47
2022-12-16T09:48:03.755Z,55.45
2022-12-16T09:50:04.452Z,43.72
2022-12-16T09:51:58.720Z,45.30
2022-12-16T09:53:55.328Z,33.15
2022-12-16T09:55:51.194Z,33.38
2022-12-16T09:57:45.273Z,30.83
2022-12-16T09:59:44.190Z,34.30
2022-12-16T10:01:35.540Z,37.58
2022-12-16T10:03:43.673Z,36.50
2022-12-16T10:05:43.184Z,38.78
2022-12-16T10:07:38.036Z,36.53
2022-12-16T10:09:38.835Z,41.60
2022-12-16T10:11:39.969Z,36.47
2022-12-16T10:13:41.170Z,51.97
2022-12-16T10:15:45.501Z,44.83
2022-12-16T10:17:43.232Z,53.63
2022-12-16T10:19:54.003Z,31.90
2022-12-16T10:21:53.257Z,37.58
2022-12-16T10:23:48.985Z,37.70
2022-12-16T10:25:42.430Z,35.63
2022-12-16T10:27:40.902Z,40.95
2022-12-16T10:29:37.452Z,59.53
2022-12-16T10:31:33.971Z,50.10
2022-12-16T10:33:29.350Z,46.35
2022-12-16T10:35:35.733Z,33.83
2022-12-16T10:37:33.791Z,33.40
2022-12-16T10:39:37.955Z,30.55
2022-12-16T10:41:45.293Z,34.70
2022-12-16T10:43:41.766Z,41.15
2022-12-16T10:45:54.245Z,39.75
2022-12-16T10:47:45.878Z,39.63
2022-12-16T10:49:36.774Z,39.80
2022-12-16T10:51:32.562Z,43.90
2022-12-16T10:53:30.820Z,46.72
2022-12-16T10:55:31.698Z,43.47
2022-12-16T10:57:43.611Z,42.78
2022-12-16T10:59:34.164Z,43.45
2022-12-16T11:01:41.821Z,36.78
2022-12-16T11:03:38.317Z,37.75
2022-12-16T11:05:49.107Z,33.58
2022-12-16T11:07:49.121Z,33.20
2022-12-16T11:09:43.998Z,30.55
2022-12-16T11:11:57.548Z,28.52
2022-12-16T11:13:50.279Z,32.35
2022-12-16T11:15:44.289Z,34.67
2022-12-16T11:17:38.798Z,34.78
2022-12-16T11:19:38.638Z,29.77
2022-12-16T11:21:32.831Z,33.58
2022-12-16T11:23:39.731Z,32.25
2022-12-16T11:25:35.499Z,33.08
2022-12-16T11:27:33.528Z,35.80
2022-12-16T11:29:32.002Z,32.85
2022-12-16T11:31:26.443Z,24.45
2022-12-16T11:33:23.872Z,22.08
2022-12-16T11:35:18.196Z,21.45
2022-12-16T11:37:11.305Z,23.10
2022-12-16T11:39:06.196Z,24.40
2022-12-16T11:40:57.374Z,23.63
2022-12-16T11:42:51.729Z,25.33
2022-12-16T11:44:49.108Z,22.15
2022-12-16T11:46:44.867Z,23.60
2022-12-16T11:48:48.361Z,19.67
2022-12-16T11:50:41.189Z,21.73
2022-12-16T11:52:37.517Z,34.30
2022-12-16T11:54:36.081Z,28.45
2022-12-16T11:56:40.099Z,28.20
2022-12-16T11:58:37.723Z,25.35
2022-12-16T12:00:33.498Z,23.00
2022-12-16T12:02:32.946Z,25.50
2022-12-16T12:04:24.089Z,28.42
2022-12-16T12:06:22.616Z,26.80
2022-12-16T12:08:19.461Z,23.13
2022-12-16T12:10:18.675Z,19.88
2022-12-16T12:12:14.345Z,23.27
2022-12-16T12:14:17.089Z,22.58
2022-12-16T12:16:14.685Z,25.83
2022-12-16T12:18:11.483Z,30.40
2022-12-16T12:20:15.541Z,30.58
2022-12-16T12:22:11.910Z,28.63
2022-12-16T12:24:14.148Z,34.67
2022-12-16T12:26:12.765Z,29.73
2022-12-16T12:28:11.591Z,33.92
2022-12-16T12:30:16.860Z,31.33
2022-12-16T12:32:17.078Z,30.55
2022-12-16T12:34:20.766Z,27.25
2022-12-16T12:36:20.316Z,26.05
2022-12-16T12:38:17.264Z,33.22
2022-12-16T12:40:14.814Z,25.20
2022-12-16T12:42:25.511Z,27.92
2022-12-16T12:44:36.443Z,39.03
2022-12-16T12:46:43.247Z,41.85
2022-12-16T12:48:41.511Z,38.60
2022-12-16T12:50:39.329Z,24.45
2022-12-16T12:52:45.403Z,28.08
2022-12-16T12:54:46.109Z,39.83
2022-12-16T12:56:46.627Z,32.47
2022-12-16T12:58:40.137Z,30.55
2022-12-16T13:00:36.153Z,25.83
2022-12-16T13:02:32.231Z,35.47
2022-12-16T13:04:28.827Z,25.45
2022-12-16T13:06:20.969Z,32.33
2022-12-16T13:08:11.810Z,24.95
2022-12-16T13:10:03.601Z,31.90
2022-12-16T13:11:54.793Z,25.00
2022-12-16T13:13:55.589Z,27.27
2022-12-16T13:15:54.253Z,18.77
2022-12-16T13:17:44.902Z,17.17
2022-12-16T13:20:17.633Z,29.83
2022-12-16T13:22:09.510Z,42.92
2022-12-16T13:24:01.343Z,19.27
2022-12-16T13:26:03.517Z,13.00
2022-12-16T13:28:28.194Z,14.10
2022-12-16T13:30:36.004Z,12.75
2022-12-16T13:32:37.536Z,17.65
2022-12-16T13:34:42.399Z,37.30
2022-12-16T13:36:35.476Z,24.50
2022-12-16T13:38:40.140Z,30.70
2022-12-16T13:40:36.393Z,19.33
2022-12-16T13:43:00.483Z,27.88
2022-12-16T13:45:17.052Z,40.80
2022-12-16T13:47:11.049Z,18.35
2022-12-16T13:49:01.607Z,28.88
2022-12-16T13:50:58.053Z,27.73
2022-12-16T13:52:59.346Z,25.60
2022-12-16T13:54:55.561Z,23.30
2022-12-16T13:56:53.224Z,24.85
2022-12-16T13:58:54.076Z,28.73
2022-12-16T14:00:47.435Z,25.30
2022-12-16T14:02:49.914Z,26.70
2022-12-16T14:04:42.793Z,29.08
2022-12-16T14:06:37.420Z,30.58
2022-12-16T14:08:35.378Z,30.00
2022-12-16T14:10:42.613Z,29.80
2022-12-16T14:12:49.584Z,29.80
2022-12-16T14:14:54.739Z,31.33
2022-12-16T14:16:55.996Z,35.45
2022-12-16T14:18:59.741Z,44.40
2022-12-16T14:20:57.997Z,48.75
2022-12-16T14:23:06.418Z,53.25
2022-12-16T14:24:57.772Z,53.47
2022-12-16T14:26:51.627Z,67.13
2022-12-16T14:28:51.176Z,66.95
2022-12-16T14:30:44.099Z,66.78
2022-12-16T14:32:39.982Z,95.90
2022-12-16T14:34:37.007Z,70.10
2022-12-16T14:36:38.788Z,66.43
2022-12-16T14:38:40.611Z,68.20
2022-12-16T14:40:39.039Z,69.43
2022-12-16T14:42:43.068Z,66.57
2022-12-16T14:44:36.768Z,80.78
2022-12-16T14:46:43.579Z,79.32
2022-12-16T14:48:49.209Z,81.68
2022-12-16T14:50:46.404Z,80.68
2022-12-16T14:52:50.470Z,98.03
2022-12-16T14:54:44.801Z,94.97
2022-12-16T14:56:38.205Z,106.75
2022-12-16T14:58:31.238Z,102.43
2022-12-16T15:00:30.883Z,102.22
2022-12-16T15:02:34.737Z,95.35
2022-12-16T15:04:34.166Z,93.00
2022-12-16T15:06:38.547Z,112.15
2022-12-16T15:08:31.046Z,161.73
2022-12-16T15:10:23.113Z,168.65
2022-12-16T15:12:15.122Z,146.98
2022-12-16T15:14:09.325Z,146.13
2022-12-16T15:16:04.070Z,132.45
2022-12-16T15:18:03.203Z,138.63
2022-12-16T15:20:03.548Z,282.13
2022-12-16T15:21:56.432Z,172.95
2022-12-16T15:23:50.137Z,198.55
2022-12-16T15:25:43.642Z,149.18
2022-12-16T15:27:43.055Z,157.48
2022-12-16T15:29:47.812Z,178.45
2022-12-16T15:31:43.511Z,217.68
2022-12-16T15:33:36.771Z,221.45
2022-12-16T15:35:27.888Z,190.45
2022-12-16T15:37:19.954Z,209.15
2022-12-16T15:39:10.886Z,272.38
2022-12-16T15:41:09.839Z,236.82
2022-12-16T15:43:01.175Z,239.23
2022-12-16T15:44:52.013Z,206.52
2022-12-16T15:46:45.351Z,232.68
2022-12-16T15:48:40.243Z,216.48
2022-12-16T15:50:33.044Z,198.18
2022-12-16T15:52:55.224Z,135.13
2022-12-16T15:54:54.205Z,102.40
2022-12-16T15:56:46.676Z,112.72
2022-12-16T15:58:45.384Z,103.07
2022-12-16T16:00:40.835Z,75.45
2022-12-16T16:02:38.566Z,83.50
2022-12-16T16:04:40.261Z,95.78
2022-12-16T16:06:37.595Z,108.45
2022-12-16T16:08:29.844Z,55.08
2022-12-16T16:10:33.759Z,51.35
2022-12-16T16:12:24.395Z,69.60
2022-12-16T16:14:15.300Z,63.05
2022-12-16T16:16:06.611Z,57.30
2022-12-16T16:17:57.391Z,52.83
2022-12-16T16:19:48.150Z,52.38
2022-12-16T16:21:39.178Z,57.20
2022-12-16T16:23:31.861Z,55.38
2022-12-16T16:25:23.962Z,69.68
2022-12-16T16:27:18.070Z,49.00
2022-12-16T16:29:08.630Z,58.78
2022-12-16T16:30:59.657Z,82.50
2022-12-16T16:32:52.741Z,70.63
2022-12-16T16:34:43.255Z,80.20
2022-12-16T16:36:34.612Z,85.15
2022-12-16T16:38:25.274Z,69.72
2022-12-16T16:40:18.403Z,109.70
2022-12-16T16:42:09.156Z,77.13
2022-12-16T16:43:59.887Z,97.03
2022-12-16T16:45:50.610Z,96.88
2022-12-16T16:47:41.193Z,110.53
2022-12-16T16:49:37.426Z,149.95
2022-12-16T16:51:28.294Z,167.57
2022-12-16T16:53:19.128Z,153.68
2022-12-16T16:55:09.689Z,160.77
2022-12-16T16:57:01.607Z,149.73
2022-12-16T16:58:53.046Z,164.23
2022-12-16T17:00:43.750Z,167.00
2022-12-16T17:02:41.188Z,130.20
2022-12-16T17:04:32.548Z,178.15
2022-12-16T17:06:23.720Z,146.25
2022-12-16T17:08:15.508Z,110.47
2022-12-16T17:10:06.615Z,95.35
2022-12-16T17:11:58.116Z,73.10
2022-12-16T17:13:50.184Z,71.97
2022-12-16T17:15:39.652Z,144.77
2022-12-16T17:17:30.221Z,196.15
2022-12-16T17:19:24.808Z,185.02
2022-12-16T17:21:15.330Z,157.18
2022-12-16T17:23:05.872Z,148.20
2022-12-16T17:24:56.237Z,134.45
2022-12-16T17:26:47.047Z,149.52
2022-12-16T17:28:38.017Z,142.52
2022-12-16T17:30:34.803Z,133.27
2022-12-16T17:32:37.817Z,119.72
2022-12-16T17:34:28.521Z,105.07
2022-12-16T17:36:19.114Z,109.47
2022-12-16T17:38:10.278Z,110.68
2022-12-16T17:40:06.485Z,101.35
2022-12-16T17:41:57.128Z,103.72
2022-12-16T17:43:47.620Z,115.95
2022-12-16T17:45:39.635Z,124.28
2022-12-16T17:47:31.482Z,161.45
2022-12-16T17:49:22.049Z,135.45
2022-12-16T17:51:13.198Z,135.00
2022-12-16T17:53:12.338Z,133.35
2022-12-16T17:55:03.890Z,133.57
2022-12-16T17:56:54.897Z,253.50
2022-12-16T17:58:54.656Z,200.45
2022-12-16T18:00:46.622Z,180.43
2022-12-16T18:02:40.273Z,185.43
2022-12-16T18:04:30.816Z,166.45
2022-12-16T18:06:21.343Z,160.55
2022-12-16T18:08:11.703Z,125.47
2022-12-16T18:10:02.365Z,190.43
2022-12-16T18:11:55.408Z,99.45
2022-12-16T18:13:46.334Z,99.43
2022-12-16T18:15:36.770Z,125.20
2022-12-16T18:17:28.807Z,115.72
2022-12-16T18:19:19.167Z,139.25
2022-12-16T18:21:10.313Z,142.90
2022-12-16T18:23:00.991Z,159.77
2022-12-16T18:24:51.387Z,157.35
2022-12-16T18:26:42.008Z,167.18
2022-12-16T18:28:32.998Z,177.27
2022-12-16T18:30:24.936Z,173.25
2022-12-16T18:32:16.080Z,175.20
2022-12-16T18:34:07.965Z,191.55
2022-12-16T18:35:58.565Z,238.98
2022-12-16T18:37:49.783Z,240.07
2022-12-16T18:39:40.666Z,242.25
2022-12-16T18:41:34.408Z,227.80
2022-12-16T18:43:24.918Z,215.73
2022-12-16T18:45:15.627Z,205.32
2022-12-16T18:47:06.803Z,211.98
2022-12-16T18:48:57.826Z,231.70
2022-12-16T18:50:49.674Z,223.95
2022-12-16T18:52:40.657Z,261.15
2022-12-16T18:54:27.648Z,214.13
2022-12-16T18:56:19.606Z,168.35
2022-12-16T18:58:21.103Z,180.95
2022-12-16T19:00:18.251Z,209.38
2022-12-16T19:02:09.252Z,171.90
2022-12-16T19:03:59.846Z,139.23
2022-12-16T19:05:51.983Z,100.45
2022-12-16T19:07:42.752Z,118.32
2022-12-16T19:09:33.254Z,90.07
2022-12-16T19:11:23.714Z,204.32
2022-12-16T19:13:15.022Z,256.10
2022-12-16T19:15:05.826Z,218.13
2022-12-16T19:16:56.689Z,241.00
2022-12-16T19:18:47.317Z,218.32
2022-12-16T19:20:38.106Z,241.15
2022-12-16T19:22:30.385Z,221.27
2022-12-16T19:24:21.006Z,182.05
2022-12-16T19:26:15.274Z,170.32
2022-12-16T19:28:05.990Z,132.52
2022-12-16T19:29:56.662Z,148.73
2022-12-16T19:31:47.739Z,139.38
2022-12-16T19:33:38.281Z,122.57
2022-12-16T19:35:28.858Z,129.13
2022-12-16T19:37:19.504Z,124.05
2022-12-16T19:39:12.014Z,109.63
2022-12-16T19:41:09.616Z,120.50
2022-12-16T19:43:00.302Z,106.22
2022-12-16T19:44:50.985Z,187.18
2022-12-16T19:46:42.407Z,118.28
2022-12-16T19:48:33.579Z,129.38
2022-12-16T19:50:24.891Z,123.15
2022-12-16T19:52:15.458Z,106.82
2022-12-16T19:54:06.847Z,154.75
2022-12-16T19:55:58.920Z,139.88
2022-12-16T19:57:49.267Z,161.48
2022-12-16T19:59:39.922Z,171.15
2022-12-16T20:01:30.765Z,193.90
2022-12-16T20:03:21.440Z,159.85
2022-12-16T20:05:12.547Z,165.43
2022-12-16T20:07:03.118Z,179.70
2022-12-16T20:08:53.508Z,174.50
2022-12-16T20:10:45.536Z,140.45
2022-12-16T20:12:37.661Z,210.93
2022-12-16T20:14:28.149Z,189.48
2022-12-16T20:16:22.959Z,146.02
2022-12-16T20:18:25.071Z,171.68
2022-12-16T20:20:15.771Z,181.07
2022-12-16T20:24:16.884Z,177.90
2022-12-16T20:26:13.153Z,188.25
2022-12-16T20:28:05.222Z,181.63
2022-12-16T20:29:56.466Z,179.20
2022-12-16T20:31:47.861Z,202.23
2022-12-16T20:33:38.771Z,256.77
2022-12-16T20:35:29.340Z,233.05
2022-12-16T20:37:20.600Z,227.27
2022-12-16T20:39:11.527Z,222.25
2022-12-16T20:41:02.187Z,175.38
2022-12-16T20:42:53.512Z,165.90
2022-12-16T20:44:45.698Z,172.57
2022-12-16T20:46:35.992Z,210.18
2022-12-16T20:48:31.450Z,161.80
2022-12-16T20:50:22.267Z,78.90
2022-12-16T20:52:12.747Z,82.20
2022-12-16T20:54:06.022Z,84.20
2022-12-16T20:55:56.806Z,63.45
2022-12-16T20:57:47.406Z,70.55
2022-12-16T20:59:37.999Z,64.85
2022-12-16T21:01:30.063Z,147.02
2022-12-16T21:03:20.720Z,168.27
2022-12-16T21:05:26.172Z,168.45
2022-12-16T21:07:16.908Z,157.45
2022-12-16T21:09:07.254Z,173.43
2022-12-16T21:10:57.726Z,170.23
2022-12-16T21:12:48.143Z,179.48
2022-12-16T21:14:38.689Z,175.88
2022-12-16T21:14:42.341Z,182.50
2022-12-16T21:16:31.022Z,169.52
2022-12-16T21:18:21.609Z,170.23
2022-12-16T21:20:12.119Z,178.30
2022-12-16T21:22:02.938Z,170.35
2022-12-16T21:23:53.795Z,162.98
2022-12-16T21:26:01.698Z,157.30
2022-12-16T21:27:52.182Z,148.90
2022-12-16T21:29:42.660Z,158.35
2022-12-16T21:31:34.500Z,167.88
2022-12-16T21:33:25.103Z,173.93
2022-12-16T21:35:16.116Z,174.35
2022-12-16T21:37:08.160Z,207.82
2022-12-16T21:38:59.850Z,198.30
2022-12-16T21:40:50.744Z,195.95
2022-12-16T21:42:44.093Z,200.85
2022-12-16T21:44:34.676Z,203.75
2022-12-16T21:46:25.039Z,149.15
2022-12-16T21:48:17.207Z,158.60
2022-12-16T21:50:07.646Z,142.93
2022-12-16T21:51:58.855Z,122.65
2022-12-16T21:53:49.863Z,125.88
2022-12-16T21:55:40.230Z,115.90
2022-12-16T21:57:30.718Z,107.15
2022-12-16T21:59:21.902Z,59.28
2022-12-16T22:01:13.089Z,49.28
2022-12-16T22:03:03.974Z,36.75
2022-12-16T22:04:56.775Z,39.10
2022-12-16T22:06:49.027Z,49.47
2022-12-16T22:08:40.057Z,53.33
2022-12-16T22:10:31.002Z,34.28
2022-12-16T22:12:21.612Z,45.08
2022-12-16T22:14:12.041Z,42.55
2022-12-16T22:16:05.014Z,44.35
2022-12-16T22:17:58.670Z,55.33
2022-12-16T22:19:49.822Z,46.65
2022-12-16T22:21:41.962Z,45.08
2022-12-16T22:23:32.572Z,48.03
2022-12-16T22:25:24.074Z,44.90
2022-12-16T22:27:15.129Z,48.45
2022-12-16T22:29:06.022Z,41.15
2022-12-16T22:30:56.812Z,37.42
2022-12-16T22:32:47.397Z,36.75
2022-12-16T22:34:38.274Z,53.47
2022-12-16T22:36:31.067Z,47.42
2022-12-16T22:38:23.721Z,57.50
2022-12-16T22:40:14.121Z,44.20
2022-12-16T22:42:07.119Z,48.47
2022-12-16T22:43:57.642Z,41.67
2022-12-16T22:45:48.005Z,41.88
2022-12-16T22:47:39.119Z,57.55
2022-12-16T22:49:29.688Z,52.90
2022-12-16T22:51:20.310Z,63.78
2022-12-16T22:53:10.723Z,85.10
2022-12-16T22:55:03.091Z,83.30
2022-12-16T22:56:53.512Z,91.30
2022-12-16T22:58:47.045Z,84.78
2022-12-16T23:00:37.693Z,65.70
2022-12-16T23:02:28.456Z,60.00
2022-12-16T23:04:19.609Z,83.78
2022-12-16T23:06:10.382Z,99.22
2022-12-16T23:08:00.904Z,88.45
2022-12-16T23:09:53.243Z,100.97
2022-12-16T23:11:52.366Z,102.85
2022-12-16T23:13:44.550Z,113.43
2022-12-16T23:15:35.501Z,107.20
2022-12-16T23:17:26.250Z,93.10
2022-12-16T23:19:31.370Z,118.68
2022-12-16T23:21:21.162Z,78.05
2022-12-16T23:23:12.956Z,93.63
2022-12-16T23:25:03.382Z,93.85
2022-12-16T23:26:55.367Z,90.85
2022-12-16T23:28:46.875Z,91.80
2022-12-16T23:30:37.816Z,92.63
2022-12-16T23:32:27.724Z,100.30
2022-12-16T23:34:18.324Z,104.82
2022-12-16T23:36:09.217Z,104.97
2022-12-16T23:38:00.381Z,98.72
2022-12-16T23:39:51.247Z,104.57
2022-12-16T23:41:42.235Z,91.97
2022-12-16T23:43:34.034Z,103.28
2022-12-16T23:45:37.079Z,99.60
2022-12-16T23:47:39.298Z,98.13
2022-12-16T23:49:30.045Z,91.85
2022-12-16T23:51:20.608Z,88.63
2022-12-16T23:53:21.000Z,93.47
2022-12-16T23:55:11.617Z,84.93
2022-12-16T23:57:02.050Z,79.88
2022-12-16T23:58:53.992Z,51.10
